Time;durP1;ratioP1;P1;durP2;ratioP2;P2;SDS_P1;SDS_P2;PMS_P1;PMS_P2;Temp;Humidity;BMP_temperature;BMP_pressure;BME280_temperature;BME280_humidity;BME280_pressure;Samples;Min_cycle;Max_cycle;Signal;HPM_P1;HPM_P2
2023/10/19 00:00:21;;;;;;;19.85;13.65;;;9.60;99.90;;;;;;5111867;28;20363;-74
2023/10/19 00:02:51;;;;;;;22.02;13.70;;;9.60;99.90;;;;;;5111649;28;20416;-74
2023/10/19 00:05:17;;;;;;;19.85;13.90;;;9.60;99.90;;;;;;5111089;28;20032;-73
2023/10/19 00:07:43;;;;;;;22.92;15.00;;;9.60;99.90;;;;;;5111841;28;20081;-75
2023/10/19 00:10:09;;;;;;;28.13;14.90;;;9.60;99.90;;;;;;5111204;28;20072;-74
2023/10/19 00:12:36;;;;;;;25.42;15.50;;;9.60;99.90;;;;;;5111099;28;20545;-74
2023/10/19 00:15:03;;;;;;;26.45;16.02;;;9.60;99.90;;;;;;5111350;28;20028;-74
2023/10/19 00:17:30;;;;;;;24.23;15.95;;;9.60;99.90;;;;;;5111616;28;20032;-73
2023/10/19 00:22:41;;;;;;;26.95;16.75;;;9.60;99.90;;;;;;5110451;28;20047;-74
2023/10/19 00:25:09;;;;;;;28.90;18.05;;;9.60;99.90;;;;;;5111049;28;20028;-73
2023/10/19 00:27:34;;;;;;;28.08;18.10;;;9.60;99.90;;;;;;5111152;28;20052;-74
2023/10/19 00:30:06;;;;;;;29.88;18.38;;;9.60;99.90;;;;;;5110713;28;20381;-73
2023/10/19 00:32:32;;;;;;;30.77;19.35;;;9.70;99.90;;;;;;5111421;28;20023;-74
2023/10/19 00:35:04;;;;;;;31.50;18.98;;;9.70;99.90;;;;;;5110874;28;20035;-73
2023/10/19 00:37:32;;;;;;;27.95;17.98;;;9.70;99.90;;;;;;5110713;28;20073;-73
2023/10/19 00:40:14;;;;;;;36.28;20.17;;;9.70;99.90;;;;;;5111128;28;20024;-74
2023/10/19 00:42:45;;;;;;;29.73;19.58;;;9.70;99.90;;;;;;5110634;28;20020;-74
2023/10/19 00:45:13;;;;;;;29.98;19.25;;;9.80;99.90;;;;;;5110809;28;20031;-73
2023/10/19 00:47:39;;;;;;;31.88;19.33;;;9.80;99.90;;;;;;5110783;28;20470;-74
2023/10/19 00:50:12;;;;;;;33.15;20.40;;;9.90;99.90;;;;;;5111013;28;20058;-73
2023/10/19 00:52:43;;;;;;;34.03;20.15;;;9.90;99.90;;;;;;5111073;28;20111;-72
2023/10/19 00:55:12;;;;;;;34.97;20.77;;;10.00;99.90;;;;;;5110752;28;20035;-72
2023/10/19 00:57:42;;;;;;;39.40;21.38;;;10.00;99.90;;;;;;5104267;28;20024;-73
2023/10/19 01:00:11;;;;;;;44.17;22.48;;;10.00;99.90;;;;;;5096713;28;20107;-73
2023/10/19 01:02:46;;;;;;;38.90;23.10;;;10.00;99.90;;;;;;5096945;28;20027;-72
2023/10/19 01:05:13;;;;;;;41.75;24.00;;;10.00;99.90;;;;;;5096338;28;20154;-73
2023/10/19 01:07:40;;;;;;;41.60;23.58;;;10.00;99.90;;;;;;5096581;28;20031;-72
2023/10/19 01:10:08;;;;;;;38.97;22.90;;;10.00;99.90;;;;;;5096579;28;20414;-72
2023/10/19 01:12:38;;;;;;;42.05;23.67;;;10.00;99.90;;;;;;5096780;28;20118;-73
2023/10/19 01:17:51;;;;;;;40.42;23.23;;;10.00;99.90;;;;;;5112146;27;20861;-72
2023/10/19 01:20:21;;;;;;;40.45;23.50;;;10.10;99.90;;;;;;5111681;28;20519;-73
2023/10/19 01:31:16;;;;;;;44.65;24.27;;;10.10;99.90;;;;;;5111415;28;20032;-72
2023/10/19 01:33:44;;;;;;;46.67;24.42;;;10.20;99.90;;;;;;5111811;28;20055;-72
2023/10/19 01:36:10;;;;;;;41.03;24.00;;;10.20;99.90;;;;;;5111848;28;20028;-72
2023/10/19 01:38:36;;;;;;;46.00;25.08;;;10.20;99.90;;;;;;5111171;28;20031;-72
2023/10/19 01:41:08;;;;;;;45.40;25.25;;;10.20;99.90;;;;;;5111602;28;20024;-72
2023/10/19 01:43:34;;;;;;;45.72;26.58;;;10.20;99.90;;;;;;5112016;28;20036;-72
2023/10/19 01:46:04;;;;;;;46.90;25.05;;;10.30;99.90;;;;;;5111290;28;20042;-72
2023/10/19 01:48:33;;;;;;;47.72;24.77;;;10.30;99.90;;;;;;5111658;28;20052;-73
2023/10/19 01:51:01;;;;;;;43.42;25.20;;;10.30;99.90;;;;;;5111408;28;20077;-72
2023/10/19 01:58:03;;;;;;;43.90;24.80;;;10.30;99.90;;;;;;5110508;28;20063;-72
2023/10/19 02:00:22;;;;;;;45.35;25.08;;;10.40;99.90;;;;;;5110454;28;20035;-72
2023/10/19 02:02:48;;;;;;;47.03;25.30;;;10.40;99.90;;;;;;5111022;28;20028;-72
2023/10/19 02:05:15;;;;;;;47.17;25.67;;;10.40;99.90;;;;;;5111145;28;20500;-72
2023/10/19 02:07:41;;;;;;;47.00;26.30;;;10.40;99.90;;;;;;5110967;28;20035;-73
2023/10/19 02:10:10;;;;;;;47.38;25.75;;;10.40;99.90;;;;;;5111441;28;20024;-73
2023/10/19 02:12:36;;;;;;;50.22;26.15;;;10.50;99.90;;;;;;5111159;28;20016;-73
2023/10/19 02:15:03;;;;;;;46.80;26.42;;;10.50;99.90;;;;;;5111031;28;20020;-73
2023/10/19 02:17:30;;;;;;;44.60;24.92;;;10.50;99.90;;;;;;5111147;28;20031;-73
2023/10/19 02:19:56;;;;;;;49.15;26.05;;;10.50;99.90;;;;;;5111037;28;20024;-73
2023/10/19 02:22:21;;;;;;;44.58;24.10;;;10.50;99.90;;;;;;5110816;28;20023;-72
2023/10/19 02:24:47;;;;;;;47.22;25.45;;;10.60;99.90;;;;;;5111097;28;20127;-73
2023/10/19 02:27:12;;;;;;;47.67;24.92;;;10.60;99.90;;;;;;5110190;28;20080;-73
2023/10/19 02:29:38;;;;;;;46.13;24.48;;;10.60;99.90;;;;;;5111246;28;20059;-73
2023/10/19 02:32:05;;;;;;;47.65;24.52;;;10.70;99.90;;;;;;5110218;28;20020;-73
2023/10/19 02:34:31;;;;;;;42.97;23.42;;;10.70;99.90;;;;;;5110532;28;20035;-72
2023/10/19 02:36:56;;;;;;;42.28;23.20;;;10.70;99.90;;;;;;5110847;28;20019;-72
2023/10/19 02:39:27;;;;;;;46.67;24.67;;;10.70;99.90;;;;;;5099202;28;20119;-73
2023/10/19 02:41:54;;;;;;;42.20;23.30;;;10.70;99.90;;;;;;5096979;28;20054;-72
2023/10/19 02:44:22;;;;;;;41.92;23.92;;;10.70;99.90;;;;;;5096957;28;20032;-73
2023/10/19 02:46:50;;;;;;;40.47;22.80;;;10.70;99.90;;;;;;5096799;28;20115;-73
2023/10/19 02:49:20;;;;;;;43.83;25.17;;;10.80;99.90;;;;;;5096818;28;20109;-73
2023/10/19 02:51:47;;;;;;;47.38;25.73;;;10.80;99.90;;;;;;5096765;28;20107;-73
2023/10/19 02:54:32;;;;;;;44.47;24.98;;;10.80;99.90;;;;;;5095833;28;20020;-73
2023/10/19 02:56:58;;;;;;;44.35;25.27;;;10.80;99.90;;;;;;5096766;28;20024;-73
2023/10/19 02:59:25;;;;;;;42.67;24.65;;;10.80;99.90;;;;;;5096685;28;20555;-73
2023/10/19 03:01:54;;;;;;;43.10;24.10;;;10.90;99.90;;;;;;5096625;28;20089;-73
2023/10/19 03:04:20;;;;;;;46.72;24.15;;;10.90;99.90;;;;;;5096942;28;20032;-72
2023/10/19 03:06:45;;;;;;;47.50;24.77;;;10.90;99.90;;;;;;5096410;28;20024;-72
2023/10/19 03:12:04;;;;;;;42.38;23.10;;;10.90;99.90;;;;;;5112126;27;20923;-73
2023/10/19 03:14:30;;;;;;;41.80;22.98;;;11.00;99.90;;;;;;5112206;28;20119;-72
2023/10/19 03:16:57;;;;;;;43.17;24.17;;;10.90;99.90;;;;;;5111472;28;20537;-73
2023/10/19 03:19:24;;;;;;;43.75;23.77;;;11.00;99.90;;;;;;5110967;28;20081;-73
2023/10/19 03:21:50;;;;;;;45.47;23.27;;;11.00;99.90;;;;;;5111671;28;20034;-73
2023/10/19 03:24:58;;;;;;;43.35;22.30;;;11.00;99.90;;;;;;5111339;28;20020;-73
2023/10/19 03:27:36;;;;;;;38.30;20.85;;;11.00;99.90;;;;;;5110841;28;20043;-73
2023/10/19 03:29:55;;;;;;;35.80;22.23;;;11.00;99.90;;;;;;5110770;28;20046;-73
2023/10/19 03:32:26;;;;;;;36.83;21.58;;;11.10;99.90;;;;;;5111488;28;20107;-73
2023/10/19 03:34:55;;;;;;;35.33;20.33;;;11.10;99.90;;;;;;5111810;28;20085;-73
2023/10/19 03:37:22;;;;;;;38.85;22.63;;;11.10;99.90;;;;;;5111338;28;20024;-73
2023/10/19 03:39:48;;;;;;;42.08;22.45;;;11.10;99.90;;;;;;5111724;28;20028;-73
2023/10/19 03:42:14;;;;;;;34.20;19.00;;;11.10;99.90;;;;;;5111288;28;20031;-73
2023/10/19 03:47:27;;;;;;;35.50;20.55;;;11.20;99.90;;;;;;5153237;27;20427;-73
2023/10/19 03:49:53;;;;;;;39.60;20.42;;;11.20;99.90;;;;;;5153030;27;20054;-73
2023/10/19 03:54:57;;;;;;;37.20;19.92;;;11.20;99.90;;;;;;5112060;27;20384;-73
2023/10/19 03:57:24;;;;;;;32.10;18.92;;;11.20;99.90;;;;;;5111959;28;20023;-73
2023/10/19 03:59:50;;;;;;;30.95;18.98;;;11.30;99.90;;;;;;5112088;28;20026;-73
2023/10/19 04:02:16;;;;;;;32.30;19.17;;;11.30;99.90;;;;;;5111883;28;20031;-73
2023/10/19 04:04:44;;;;;;;34.65;19.88;;;11.40;99.90;;;;;;5111753;28;20114;-72
2023/10/19 04:07:18;;;;;;;37.28;20.15;;;11.30;99.90;;;;;;5111450;28;20028;-72
2023/10/19 04:09:57;;;;;;;30.67;18.95;;;11.40;99.90;;;;;;5111889;28;20023;-72
2023/10/19 04:12:24;;;;;;;30.90;18.75;;;11.40;99.90;;;;;;5111925;28;20024;-73
2023/10/19 04:14:50;;;;;;;31.33;19.55;;;11.40;99.90;;;;;;5111576;28;20031;-73
2023/10/19 04:17:16;;;;;;;27.20;17.67;;;11.40;99.90;;;;;;5111637;28;20161;-72
2023/10/19 04:19:41;;;;;;;32.58;19.15;;;11.40;99.90;;;;;;5111378;28;20023;-72
2023/10/19 04:22:11;;;;;;;26.23;16.10;;;11.50;99.90;;;;;;5111435;28;20027;-72
2023/10/19 04:24:36;;;;;;;24.80;16.88;;;11.50;99.90;;;;;;5111701;28;20020;-73
2023/10/19 04:27:02;;;;;;;28.52;18.58;;;11.50;99.90;;;;;;5110788;28;20046;-73
2023/10/19 04:29:27;;;;;;;25.95;16.88;;;11.50;99.90;;;;;;5110870;28;20035;-73
2023/10/19 04:31:54;;;;;;;27.02;16.13;;;11.50;99.90;;;;;;5110811;28;20382;-73
2023/10/19 04:34:21;;;;;;;21.42;14.65;;;11.50;99.90;;;;;;5111185;28;20034;-73
2023/10/19 04:36:48;;;;;;;25.83;16.02;;;11.50;99.90;;;;;;5110771;28;20377;-73
2023/10/19 04:39:13;;;;;;;24.13;15.75;;;11.50;99.90;;;;;;5110695;27;20020;-73
2023/10/19 04:41:40;;;;;;;32.88;17.77;;;11.50;99.90;;;;;;5110376;28;20030;-73
2023/10/19 04:44:08;;;;;;;29.35;18.25;;;11.50;99.90;;;;;;5110927;28;20081;-73
2023/10/19 04:46:34;;;;;;;29.13;17.77;;;11.60;99.90;;;;;;5110555;28;20055;-73
2023/10/19 04:49:00;;;;;;;29.13;18.20;;;11.60;99.90;;;;;;5110965;28;20381;-73
2023/10/19 04:51:25;;;;;;;29.38;17.38;;;11.60;99.90;;;;;;5111185;28;20031;-73
2023/10/19 04:53:51;;;;;;;28.85;16.83;;;11.60;99.90;;;;;;5109786;28;20046;-73
2023/10/19 04:56:16;;;;;;;25.23;16.45;;;11.60;99.90;;;;;;5110226;28;20459;-73
2023/10/19 04:58:42;;;;;;;24.48;15.25;;;11.70;99.90;;;;;;5111001;28;20032;-73
2023/10/19 05:01:07;;;;;;;27.27;16.52;;;11.70;99.90;;;;;;5109827;28;20038;-73
2023/10/19 05:03:34;;;;;;;28.08;16.85;;;11.70;99.90;;;;;;5110907;28;20032;-73
2023/10/19 05:06:01;;;;;;;25.80;16.25;;;11.70;99.90;;;;;;5097667;27;20024;-73
2023/10/19 05:08:27;;;;;;;28.40;16.67;;;11.70;99.90;;;;;;5096972;28;20077;-74
2023/10/19 05:10:54;;;;;;;26.50;16.70;;;11.70;99.90;;;;;;5096664;28;20030;-73
2023/10/19 05:13:22;;;;;;;29.92;16.85;;;11.80;99.90;;;;;;5096477;28;20062;-73
2023/10/19 05:15:48;;;;;;;21.90;14.07;;;11.80;99.90;;;;;;5096665;28;20028;-73
2023/10/19 05:18:13;;;;;;;25.33;15.02;;;11.80;99.90;;;;;;5096721;28;20434;-73
2023/10/19 05:20:40;;;;;;;23.77;14.25;;;11.80;99.90;;;;;;5096746;28;20373;-73
2023/10/19 05:23:08;;;;;;;24.73;16.83;;;11.80;99.90;;;;;;5096954;28;20039;-73
2023/10/19 05:25:34;;;;;;;24.83;16.52;;;11.80;99.90;;;;;;5096810;28;20036;-73
2023/10/19 05:28:00;;;;;;;21.20;15.27;;;11.90;99.90;;;;;;5096497;28;20097;-73
2023/10/19 05:30:26;;;;;;;27.98;15.32;;;11.90;99.90;;;;;;5096502;28;20028;-73
2023/10/19 05:32:51;;;;;;;22.92;14.77;;;11.90;99.90;;;;;;5096293;28;20035;-74
2023/10/19 05:35:22;;;;;;;19.30;13.02;;;11.90;99.90;;;;;;5096259;28;20027;-73
2023/10/19 05:37:49;;;;;;;25.63;15.82;;;11.90;99.90;;;;;;5095800;28;20028;-73
2023/10/19 05:40:15;;;;;;;24.27;16.02;;;11.90;99.90;;;;;;5096182;28;20466;-73
2023/10/19 05:42:41;;;;;;;28.55;17.15;;;11.90;99.90;;;;;;5096256;28;20032;-73
2023/10/19 05:45:07;;;;;;;22.55;15.82;;;11.90;99.90;;;;;;5095824;28;20039;-73
2023/10/19 05:47:32;;;;;;;28.90;17.02;;;11.90;99.90;;;;;;5096457;28;20032;-73
2023/10/19 05:49:58;;;;;;;28.50;17.75;;;11.90;99.90;;;;;;5095454;28;20031;-73
2023/10/19 05:52:24;;;;;;;26.85;16.20;;;11.90;99.90;;;;;;5095866;28;20033;-73
2023/10/19 05:54:49;;;;;;;24.55;15.07;;;12.00;99.90;;;;;;5094894;28;20093;-73
2023/10/19 05:57:15;;;;;;;24.73;14.75;;;12.00;99.90;;;;;;5096021;28;20031;-73
2023/10/19 05:59:40;;;;;;;25.45;16.38;;;12.10;99.90;;;;;;5095469;28;20021;-73
2023/10/19 06:02:07;;;;;;;21.83;15.18;;;12.10;99.90;;;;;;5094953;28;20023;-73
2023/10/19 06:04:33;;;;;;;28.50;15.80;;;12.10;99.90;;;;;;5096011;28;20047;-73
2023/10/19 06:06:58;;;;;;;24.98;15.60;;;12.10;99.90;;;;;;5095746;28;20465;-73
2023/10/19 06:09:29;;;;;;;23.95;14.05;;;12.20;99.90;;;;;;5095959;28;20032;-73
2023/10/19 06:11:55;;;;;;;17.88;12.45;;;12.20;99.90;;;;;;5095681;28;20020;-73
2023/10/19 06:14:21;;;;;;;21.23;14.30;;;12.20;99.90;;;;;;5095079;28;20377;-73
2023/10/19 06:16:46;;;;;;;21.95;14.27;;;12.20;99.90;;;;;;5094970;28;20024;-73
2023/10/19 06:19:12;;;;;;;17.38;12.82;;;12.30;99.90;;;;;;5095750;28;20111;-73
2023/10/19 06:21:37;;;;;;;23.02;13.25;;;12.30;99.90;;;;;;5095192;28;20386;-73
2023/10/19 06:24:03;;;;;;;19.42;13.10;;;12.40;99.90;;;;;;5095366;28;20055;-73
2023/10/19 06:26:29;;;;;;;25.67;15.18;;;12.40;99.90;;;;;;5095407;28;20584;-73
2023/10/19 06:29:03;;;;;;;25.65;14.75;;;12.40;99.90;;;;;;5095120;28;20068;-73
2023/10/19 06:31:29;;;;;;;22.20;14.00;;;12.50;99.90;;;;;;5095630;28;20085;-73
2023/10/19 06:33:54;;;;;;;23.80;13.95;;;12.50;99.90;;;;;;5094477;28;20032;-73
2023/10/19 06:36:20;;;;;;;24.42;14.65;;;12.60;99.90;;;;;;5095375;28;20020;-73
2023/10/19 06:38:46;;;;;;;23.48;14.23;;;12.70;99.90;;;;;;5095132;28;20032;-73
2023/10/19 06:41:12;;;;;;;22.67;14.45;;;12.80;99.90;;;;;;5094911;28;20462;-73
2023/10/19 06:43:39;;;;;;;23.55;15.07;;;12.90;99.90;;;;;;5095076;28;20036;-73
2023/10/19 06:46:05;;;;;;;20.95;13.65;;;12.90;99.90;;;;;;5095084;28;20055;-73
2023/10/19 06:48:32;;;;;;;24.70;14.30;;;12.90;99.90;;;;;;5095360;28;20043;-73
2023/10/19 06:50:57;;;;;;;19.70;15.25;;;13.00;99.90;;;;;;5094702;28;20024;-73
2023/10/19 06:53:23;;;;;;;23.05;15.05;;;13.00;99.90;;;;;;5094006;28;20122;-73
2023/10/19 06:55:48;;;;;;;31.50;16.30;;;13.00;99.90;;;;;;5095094;28;20024;-73
2023/10/19 06:58:14;;;;;;;24.05;14.77;;;12.90;99.90;;;;;;5094873;28;20077;-73
2023/10/19 07:00:44;;;;;;;27.23;15.40;;;13.00;99.90;;;;;;5094447;28;20090;-73
2023/10/19 07:03:10;;;;;;;21.52;13.60;;;13.00;99.90;;;;;;5094062;28;20089;-73
2023/10/19 07:05:35;;;;;;;25.65;14.38;;;13.10;99.90;;;;;;5093755;28;20032;-73
2023/10/19 07:08:02;;;;;;;20.80;13.65;;;13.10;99.90;;;;;;5094725;28;20031;-73
2023/10/19 07:10:28;;;;;;;23.13;14.02;;;13.10;99.90;;;;;;5094664;28;20453;-73
2023/10/19 07:12:55;;;;;;;23.55;13.93;;;13.10;99.90;;;;;;5094225;28;20035;-73
2023/10/19 07:15:23;;;;;;;23.63;14.85;;;13.20;99.90;;;;;;5094041;28;20032;-74
2023/10/19 07:17:52;;;;;;;25.02;14.13;;;13.20;99.90;;;;;;5094708;28;20028;-73
2023/10/19 07:20:50;;;;;;;18.63;13.20;;;13.20;99.90;;;;;;5094153;28;20449;-73
2023/10/19 07:23:21;;;;;;;24.75;13.93;;;13.20;99.90;;;;;;5093539;28;20074;-74
2023/10/19 07:25:49;;;;;;;20.95;13.88;;;13.30;99.90;;;;;;5094661;28;20028;-74
2023/10/19 07:28:15;;;;;;;24.40;13.88;;;13.30;99.90;;;;;;5094430;28;20412;-74
2023/10/19 07:30:42;;;;;;;25.08;13.82;;;13.30;99.90;;;;;;5094545;28;20489;-74
2023/10/19 07:33:09;;;;;;;23.98;14.18;;;13.40;99.90;;;;;;5094461;28;20489;-74
2023/10/19 07:35:38;;;;;;;26.13;13.40;;;13.40;99.90;;;;;;5094208;28;20370;-73
2023/10/19 07:38:07;;;;;;;23.92;14.07;;;13.50;99.90;;;;;;5094154;28;20031;-74
2023/10/19 07:40:33;;;;;;;21.08;11.57;;;13.60;99.90;;;;;;5093878;28;20026;-74
2023/10/19 07:42:58;;;;;;;22.08;12.95;;;13.70;99.90;;;;;;5093910;28;20119;-73
2023/10/19 07:45:25;;;;;;;25.42;13.20;;;13.80;99.90;;;;;;5094093;28;20031;-73
2023/10/19 07:47:51;;;;;;;21.08;12.82;;;13.90;99.90;;;;;;5094351;28;20043;-73
2023/10/19 07:50:16;;;;;;;20.52;11.98;;;14.00;99.90;;;;;;5094079;28;20028;-74
2023/10/19 07:52:44;;;;;;;20.42;11.30;;;14.10;99.90;;;;;;5093343;28;20063;-74
2023/10/19 07:55:10;;;;;;;24.08;12.65;;;14.20;99.90;;;;;;5093908;28;20119;-74
2023/10/19 07:57:36;;;;;;;20.63;12.27;;;14.30;99.90;;;;;;5093786;28;20028;-74
2023/10/19 08:00:03;;;;;;;19.83;12.15;;;14.40;99.90;;;;;;5093979;28;20339;-73
2023/10/19 08:02:30;;;;;;;21.65;11.73;;;14.40;99.90;;;;;;5093891;28;20102;-74
2023/10/19 08:04:55;;;;;;;20.73;11.55;;;14.40;99.90;;;;;;5082350;28;20382;-73
2023/10/19 08:07:21;;;;;;;20.67;10.90;;;14.40;99.90;;;;;;5084001;28;20036;-73
2023/10/19 08:09:47;;;;;;;16.05;10.68;;;14.40;99.90;;;;;;5076785;28;20482;-73
2023/10/19 08:12:13;;;;;;;14.20;10.27;;;14.40;99.90;;;;;;5087468;28;20032;-74
2023/10/19 08:14:39;;;;;;;15.50;10.40;;;14.30;99.90;;;;;;5093842;28;20028;-74
2023/10/19 08:17:05;;;;;;;13.98;10.27;;;14.30;99.90;;;;;;5093661;28;20024;-73
2023/10/19 08:19:31;;;;;;;15.45;9.88;;;14.20;99.90;;;;;;5090304;28;20020;-72
2023/10/19 08:21:57;;;;;;;16.00;10.98;;;14.30;99.90;;;;;;5091661;28;20394;-74
2023/10/19 08:24:23;;;;;;;15.18;10.20;;;14.20;99.90;;;;;;5091227;28;20565;-72
2023/10/19 08:26:50;;;;;;;13.70;10.27;;;14.20;99.90;;;;;;5085724;28;20118;-73
2023/10/19 08:29:16;;;;;;;15.52;10.00;;;14.30;99.90;;;;;;5091164;28;20089;-74
2023/10/19 08:31:44;;;;;;;18.48;11.00;;;14.30;99.90;;;;;;5079737;28;20067;-73
2023/10/19 08:34:11;;;;;;;15.02;10.80;;;14.40;99.90;;;;;;5093379;28;20031;-74
2023/10/19 08:36:37;;;;;;;16.17;11.23;;;14.40;99.90;;;;;;5075370;28;20505;-74
2023/10/19 08:39:05;;;;;;;13.70;10.35;;;14.60;99.90;;;;;;5082975;28;20074;-73
2023/10/19 08:41:34;;;;;;;16.95;10.63;;;14.60;99.90;;;;;;5076905;28;20033;-73
2023/10/19 08:44:02;;;;;;;15.25;11.40;;;14.60;99.90;;;;;;5076489;28;20029;-72
2023/10/19 08:46:28;;;;;;;14.05;10.52;;;14.60;99.90;;;;;;5097125;28;20032;-73
2023/10/19 08:48:56;;;;;;;16.70;10.20;;;14.50;99.90;;;;;;5093512;28;20485;-73
2023/10/19 08:51:24;;;;;;;14.15;10.32;;;14.50;99.90;;;;;;5077094;28;20047;-73
2023/10/19 08:53:53;;;;;;;15.60;10.23;;;14.60;99.90;;;;;;5076360;28;20051;-73
2023/10/19 08:56:19;;;;;;;15.30;9.57;;;14.50;99.90;;;;;;5077026;28;20478;-73
2023/10/19 08:58:46;;;;;;;14.70;10.30;;;14.50;99.90;;;;;;5079750;28;20052;-73
2023/10/19 09:01:12;;;;;;;13.35;9.55;;;14.50;99.90;;;;;;5076879;28;20032;-73
2023/10/19 09:03:38;;;;;;;16.77;10.20;;;14.60;99.90;;;;;;5078357;28;20031;-74
2023/10/19 09:06:05;;;;;;;19.15;11.02;;;14.60;99.90;;;;;;5097080;28;20528;-73
2023/10/19 09:08:38;;;;;;;14.75;9.93;;;14.70;99.90;;;;;;5090771;28;20123;-73
2023/10/19 09:11:08;;;;;;;14.98;9.48;;;14.80;99.90;;;;;;5076672;28;20104;-73
2023/10/19 09:13:51;;;;;;;12.63;9.10;;;15.00;99.90;;;;;;5076299;28;20390;-73
2023/10/19 09:16:19;;;;;;;18.40;9.88;;;15.00;99.90;;;;;;5077056;28;20366;-73
2023/10/19 09:18:47;;;;;;;12.93;9.18;;;15.20;99.90;;;;;;5077719;28;20036;-74
2023/10/19 09:21:32;;;;;;;14.55;9.00;;;15.40;99.90;;;;;;5076436;28;20021;-73
2023/10/19 09:23:58;;;;;;;11.85;7.80;;;15.50;99.90;;;;;;5075650;28;20032;-74
2023/10/19 09:26:25;;;;;;;10.65;7.35;;;15.40;99.90;;;;;;5075529;28;20102;-75
2023/10/19 09:28:51;;;;;;;16.27;8.00;;;15.30;99.90;;;;;;5076936;28;20506;-73
2023/10/19 09:31:18;;;;;;;15.25;8.50;;;15.20;99.90;;;;;;5086611;28;20386;-73
2023/10/19 09:33:45;;;;;;;18.48;8.93;;;15.30;99.90;;;;;;5096260;28;20078;-73
2023/10/19 09:36:13;;;;;;;13.32;9.10;;;15.20;99.90;;;;;;5096840;28;20016;-74
2023/10/19 09:38:43;;;;;;;12.70;8.57;;;15.20;99.90;;;;;;5096402;28;20434;-73
2023/10/19 09:41:12;;;;;;;18.98;9.43;;;15.30;99.90;;;;;;5090866;28;20078;-74
2023/10/19 09:43:45;;;;;;;16.17;9.88;;;15.40;99.90;;;;;;5076108;28;20386;-73
2023/10/19 09:46:12;;;;;;;12.80;10.15;;;15.60;99.90;;;;;;5075415;28;20115;-73
2023/10/19 09:48:42;;;;;;;14.35;10.30;;;15.70;99.90;;;;;;5077504;28;20040;-73
2023/10/19 09:51:09;;;;;;;15.50;9.70;;;15.70;99.90;;;;;;5075411;28;20033;-73
2023/10/19 09:53:35;;;;;;;14.77;8.32;;;15.80;99.90;;;;;;5076232;28;20135;-74
2023/10/19 09:56:04;;;;;;;10.32;8.70;;;15.60;99.90;;;;;;5076087;28;20535;-73
2023/10/19 09:58:37;;;;;;;10.63;8.18;;;15.70;99.90;;;;;;5075992;28;20028;-73
2023/10/19 10:01:03;;;;;;;14.07;8.40;;;15.70;99.90;;;;;;5080643;28;20040;-73
2023/10/19 10:03:49;;;;;;;12.88;7.88;;;15.70;99.90;;;;;;5087913;28;20040;-73
2023/10/19 10:06:18;;;;;;;10.90;7.75;;;15.80;99.90;;;;;;5090901;28;20036;-74
2023/10/19 10:08:45;;;;;;;12.27;7.43;;;15.80;99.90;;;;;;5091927;28;20036;-74
2023/10/19 10:11:27;;;;;;;10.45;7.57;;;15.80;99.90;;;;;;5083061;28;20115;-74
2023/10/19 10:13:55;;;;;;;9.63;7.47;;;15.80;99.90;;;;;;5074363;28;20040;-73
2023/10/19 10:16:26;;;;;;;10.35;7.72;;;15.90;99.90;;;;;;5082440;28;20024;-74
2023/10/19 10:18:55;;;;;;;9.95;7.07;;;15.90;99.90;;;;;;5115170;28;20072;-74
2023/10/19 10:21:23;;;;;;;9.90;7.35;;;15.90;99.90;;;;;;5092061;28;20027;-73
2023/10/19 10:23:57;;;;;;;12.63;7.90;;;15.90;99.90;;;;;;5092610;28;20035;-73
2023/10/19 10:26:25;;;;;;;11.32;7.38;;;16.00;99.90;;;;;;5080595;28;20059;-73
2023/10/19 10:29:20;;;;;;;12.68;6.80;;;16.10;99.90;;;;;;5075528;28;20489;-73
2023/10/19 10:31:47;;;;;;;12.93;6.43;;;16.20;99.90;;;;;;5085021;28;20131;-73
2023/10/19 10:37:13;;;;;;;12.68;6.05;;;16.20;99.90;;;;;;5070528;28;20449;-73
2023/10/19 10:39:40;;;;;;;7.50;6.22;;;16.40;99.90;;;;;;5071467;28;20025;-73
2023/10/19 10:42:09;;;;;;;9.70;5.55;;;16.50;99.90;;;;;;5055476;28;20047;-73
2023/10/19 10:44:39;;;;;;;13.00;5.63;;;16.60;99.90;;;;;;5032471;28;20044;-73
2023/10/19 10:47:10;;;;;;;9.25;5.85;;;16.80;99.90;;;;;;5038197;28;20022;-73
2023/10/19 10:49:49;;;;;;;9.27;5.45;;;16.90;99.90;;;;;;5051390;28;20025;-73
2023/10/19 10:52:35;;;;;;;8.30;5.35;;;17.00;99.90;;;;;;5016445;28;20436;-73
2023/10/19 10:55:11;;;;;;;9.60;5.50;;;17.00;99.90;;;;;;5010138;28;20034;-73
2023/10/19 10:57:37;;;;;;;9.43;5.60;;;16.90;99.90;;;;;;5011274;28;20030;-73
2023/10/19 11:00:07;;;;;;;11.25;5.40;;;16.80;99.90;;;;;;5025109;28;20079;-73
2023/10/19 11:02:35;;;;;;;10.05;5.25;;;16.80;99.90;;;;;;5030725;28;20061;-73
2023/10/19 11:05:01;;;;;;;13.15;5.43;;;16.90;99.90;;;;;;5020555;28;20052;-73
2023/10/19 11:07:26;;;;;;;8.20;5.45;;;16.90;99.90;;;;;;5011194;28;20037;-74
2023/10/19 11:09:52;;;;;;;9.60;5.57;;;16.90;99.90;;;;;;5026399;28;20380;-73
2023/10/19 11:12:19;;;;;;;6.93;5.82;;;17.10;99.90;;;;;;5030781;28;20030;-73
2023/10/19 11:14:53;;;;;;;9.38;5.97;;;17.20;99.90;;;;;;5011857;28;20392;-74
2023/10/19 11:17:19;;;;;;;10.60;5.55;;;17.40;99.90;;;;;;5028687;28;20045;-73
2023/10/19 11:19:44;;;;;;;9.75;6.22;;;17.40;99.90;;;;;;5030290;28;20018;-76
2023/10/19 11:22:11;;;;;;;7.80;5.78;;;17.50;99.90;;;;;;5030454;28;20121;-73
2023/10/19 11:24:39;;;;;;;9.27;4.90;;;17.60;99.90;;;;;;5023248;28;20046;-73
2023/10/19 11:27:07;;;;;;;7.95;4.63;;;17.40;99.90;;;;;;5009777;28;21419;-72
2023/10/19 11:29:33;;;;;;;10.98;4.95;;;17.30;99.90;;;;;;5012464;28;20044;-73
2023/10/19 11:32:00;;;;;;;11.68;5.28;;;17.30;99.90;;;;;;5019317;28;20064;-72
2023/10/19 11:34:26;;;;;;;10.50;5.40;;;17.20;99.90;;;;;;5027092;28;20029;-73
2023/10/19 11:36:59;;;;;;;8.23;4.72;;;17.20;99.90;;;;;;5010505;28;20487;-72
2023/10/19 11:39:25;;;;;;;7.20;4.90;;;17.40;99.90;;;;;;5009592;28;20032;-73
2023/10/19 11:41:51;;;;;;;10.45;5.53;;;17.70;99.90;;;;;;5009272;28;20033;-74
2023/10/19 11:44:16;;;;;;;9.40;4.72;;;17.80;99.90;;;;;;5010773;28;20030;-73
2023/10/19 11:46:42;;;;;;;7.18;4.68;;;18.00;99.90;;;;;;5016774;28;20030;-73
2023/10/19 11:49:09;;;;;;;6.35;4.20;;;18.40;99.90;;;;;;4998375;28;20053;-73
2023/10/19 11:51:34;;;;;;;5.47;4.28;;;18.60;99.90;;;;;;5009384;28;20129;-74
2023/10/19 11:54:01;;;;;;;6.72;4.32;;;18.80;99.90;;;;;;5007930;28;20468;-74
2023/10/19 11:56:26;;;;;;;11.15;4.03;;;18.80;99.90;;;;;;4997245;28;20023;-74
2023/10/19 11:58:52;;;;;;;5.50;3.90;;;18.80;99.90;;;;;;4998693;28;20031;-73
2023/10/19 12:01:18;;;;;;;7.80;4.43;;;18.80;99.90;;;;;;5015015;28;20026;-74
2023/10/19 12:03:45;;;;;;;6.13;3.60;;;18.80;99.90;;;;;;5001605;28;20030;-74
2023/10/19 12:06:12;;;;;;;9.45;3.63;;;18.80;99.90;;;;;;4997002;28;20109;-74
2023/10/19 12:08:40;;;;;;;9.27;2.80;;;18.80;99.90;;;;;;4996980;28;20354;-73
2023/10/19 12:11:15;;;;;;;5.90;2.42;;;18.60;97.10;;;;;;4996043;28;20063;-73
2023/10/19 12:13:41;;;;;;;5.03;2.53;;;18.90;99.90;;;;;;5015681;28;20036;-73
2023/10/19 12:16:07;;;;;;;8.32;2.75;;;19.10;92.40;;;;;;5016192;28;20073;-73
2023/10/19 12:18:32;;;;;;;8.18;2.67;;;19.10;64.40;;;;;;5011348;28;20037;-73
2023/10/19 12:20:59;;;;;;;8.77;2.75;;;19.10;90.30;;;;;;5008929;28;20121;-73
2023/10/19 12:23:25;;;;;;;7.70;3.15;;;19.00;91.50;;;;;;5011252;28;20088;-73
2023/10/19 12:25:51;;;;;;;5.65;2.40;;;18.80;62.40;;;;;;4996309;28;20069;-73
2023/10/19 12:28:17;;;;;;;9.70;3.22;;;18.70;42.40;;;;;;4995488;28;20034;-74
2023/10/19 12:30:43;;;;;;;6.35;2.67;;;18.70;59.20;;;;;;4997047;28;20439;-74
2023/10/19 12:33:12;;;;;;;6.25;2.42;;;18.80;47.50;;;;;;5000950;28;20029;-74
2023/10/19 12:35:57;;;;;;;7.95;2.72;;;18.90;38.10;;;;;;5010141;28;20041;-74
2023/10/19 12:38:23;;;;;;;11.40;2.55;;;18.90;45.90;;;;;;5015179;28;20037;-74
2023/10/19 12:40:51;;;;;;;8.82;2.60;;;18.90;57.70;;;;;;5007133;28;20026;-74
2023/10/19 12:43:18;;;;;;;11.02;2.63;;;18.90;64.50;;;;;;4998794;28;20030;-74
2023/10/19 12:45:50;;;;;;;9.27;2.60;;;19.00;53.70;;;;;;4996028;28;20026;-74
2023/10/19 12:48:16;;;;;;;6.18;2.42;;;19.20;21.20;;;;;;4995593;28;20081;-74
2023/10/19 12:50:42;;;;;;;7.65;2.40;;;19.40;5.20;;;;;;5003232;28;20080;-74
2023/10/19 12:53:09;;;;;;;12.02;2.90;;;19.50;1.00;;;;;;5009759;28;20023;-74
2023/10/19 12:55:37;;;;;;;7.07;2.38;;;19.40;1.00;;;;;;4997339;28;20432;-74
2023/10/19 12:58:10;;;;;;;6.10;2.28;;;19.30;1.00;;;;;;5015376;28;20459;-74
2023/10/19 13:00:40;;;;;;;8.57;2.45;;;19.30;1.00;;;;;;5014555;28;20033;-74
2023/10/19 13:03:07;;;;;;;4.15;2.03;;;19.40;1.00;;;;;;5003848;28;20030;-74
2023/10/19 13:05:35;;;;;;;8.18;2.55;;;19.30;1.00;;;;;;5004104;28;20038;-74